Time;durP1;ratioP1;P1;durP2;ratioP2;P2;SDS_P1;SDS_P2;PMS_P1;PMS_P2;Temp;Humidity;BMP_temperature;BMP_pressure;BME280_temperature;BME280_humidity;BME280_pressure;Samples;Min_cycle;Max_cycle;Signal;HPM_P1;HPM_P2
2023/05/09 00:01:07;;;;;;;0.40;0.27;;;;;;;16.58;100.00;95426.03;5071766;28;20461;-70
2023/05/09 00:03:35;;;;;;;0.40;0.30;;;;;;;16.45;100.00;95400.09;5071152;28;20437;-70
2023/05/09 00:06:04;;;;;;;0.40;0.30;;;;;;;16.48;100.00;95427.03;5071513;28;20473;-69
2023/05/09 00:08:32;;;;;;;0.40;0.30;;;;;;;16.19;100.00;95429.28;5045898;28;20521;-69
2023/05/09 00:11:01;;;;;;;0.83;0.70;;;;;;;15.91;100.00;95427.00;5071302;28;20449;-69
2023/05/09 00:13:31;;;;;;;0.50;0.50;;;;;;;15.82;100.00;95416.22;5071608;28;20528;-69
2023/05/09 00:16:00;;;;;;;0.50;0.50;;;;;;;15.96;100.00;95424.22;5071351;28;20438;-69
2023/05/09 00:18:29;;;;;;;2.00;0.60;;;;;;;15.98;100.00;95432.72;5071482;28;20437;-69
2023/05/09 00:20:58;;;;;;;0.53;0.50;;;;;;;16.19;100.00;95413.25;5057807;28;20443;-69
2023/05/09 00:23:26;;;;;;;0.40;0.30;;;;;;;16.30;100.00;95401.25;5071178;28;20857;-66
2023/05/09 00:25:55;;;;;;;0.60;0.30;;;;;;;16.41;100.00;95415.97;5070496;28;20434;-66
2023/05/09 00:28:23;;;;;;;0.60;0.57;;;;;;;16.44;100.00;95420.69;5070706;28;20449;-66
2023/05/09 00:30:53;;;;;;;0.40;0.30;;;;;;;16.64;100.00;95413.34;5066678;28;20482;-67
2023/05/09 00:33:21;;;;;;;4.63;0.33;;;;;;;16.68;100.00;95420.44;5062545;28;20437;-67
2023/05/09 00:35:50;;;;;;;0.40;0.30;;;;;;;16.78;100.00;95409.50;5071132;28;20429;-66
2023/05/09 00:38:18;;;;;;;0.40;0.30;;;;;;;16.88;100.00;95411.13;5071439;28;20517;-66
2023/05/09 00:40:46;;;;;;;0.60;0.40;;;;;;;16.93;100.00;95416.34;5074784;28;20505;-66
2023/05/09 00:43:15;;;;;;;0.40;0.30;;;;;;;16.95;100.00;95422.19;5075286;28;20532;-67
2023/05/09 00:45:44;;;;;;;1.37;1.37;;;;;;;16.90;100.00;95415.06;5075151;28;20520;-66
2023/05/09 00:48:14;;;;;;;0.37;0.27;;;;;;;16.83;100.00;95422.75;5074657;28;20799;-66
2023/05/09 00:50:43;;;;;;;0.60;0.43;;;;;;;16.81;100.00;95418.78;5074631;28;20522;-65
2023/05/09 00:53:12;;;;;;;0.40;0.30;;;;;;;16.82;100.00;95415.81;5074735;28;20950;-65
2023/05/09 00:55:40;;;;;;;0.40;0.30;;;;;;;16.83;100.00;95427.31;5074611;28;20441;-66
2023/05/09 00:58:11;;;;;;;0.70;0.70;;;;;;;16.92;100.00;95420.94;5074787;28;20525;-65
2023/05/09 01:00:40;;;;;;;0.77;0.77;;;;;;;16.57;100.00;95429.78;5074070;28;20488;-65
2023/05/09 01:03:09;;;;;;;0.83;0.83;;;;;;;16.15;100.00;95430.22;5073726;28;20528;-65
2023/05/09 01:05:50;;;;;;;0.60;0.57;;;;;;;15.89;100.00;95425.41;5073877;28;20445;-65
2023/05/09 01:08:34;;;;;;;0.60;0.40;;;;;;;16.11;100.00;95429.25;5074935;28;20433;-65
2023/05/09 01:11:09;;;;;;;1.33;1.23;;;;;;;15.89;100.00;95427.28;5074918;28;20976;-65
2023/05/09 01:13:52;;;;;;;0.70;0.60;;;;;;;15.87;100.00;95430.25;5074746;28;20474;-65
2023/05/09 01:16:26;;;;;;;2.10;1.23;;;;;;;15.57;100.00;95395.34;5074624;28;20433;-65
2023/05/09 01:19:02;;;;;;;0.50;0.30;;;;;;;16.10;100.00;95433.78;5074395;28;20433;-65
2023/05/09 01:21:32;;;;;;;0.40;0.30;;;;;;;15.67;100.00;95360.41;5074896;28;20456;-65
2023/05/09 01:24:25;;;;;;;0.70;0.70;;;;;;;15.85;100.00;95370.97;5074111;28;20470;-66
2023/05/09 01:27:21;;;;;;;0.40;0.40;;;;;;;16.17;100.00;95433.38;5054034;28;20477;-65
2023/05/09 01:29:56;;;;;;;2.10;0.50;;;;;;;15.93;100.00;95443.53;5074368;28;21017;-65
2023/05/09 01:32:26;;;;;;;0.40;0.27;;;;;;;16.21;100.00;95440.50;5073662;28;21009;-65
2023/05/09 01:34:56;;;;;;;0.43;0.43;;;;;;;15.91;100.00;95369.00;5074179;28;20938;-65
2023/05/09 01:37:30;;;;;;;0.40;0.30;;;;;;;16.43;100.00;95429.84;5073905;28;20462;-65
2023/05/09 01:40:08;;;;;;;0.40;0.30;;;;;;;16.29;100.00;95439.00;5073845;28;20473;-65
2023/05/09 01:42:42;;;;;;;0.50;0.50;;;;;;;16.16;100.00;95426.44;5073521;28;20442;-65
2023/05/09 01:45:14;;;;;;;0.40;0.30;;;;;;;16.41;100.00;95440.06;5074109;28;20881;-65
2023/05/09 01:47:44;;;;;;;0.50;0.30;;;;;;;16.36;100.00;95429.47;5049039;28;20520;-65
2023/05/09 01:50:13;;;;;;;0.40;0.30;;;;;;;16.26;100.00;95451.09;5073259;28;20529;-66
2023/05/09 01:52:43;;;;;;;0.40;0.30;;;;;;;16.01;100.00;95443.63;5073696;28;20940;-66
2023/05/09 01:55:12;;;;;;;0.60;0.40;;;;;;;15.90;100.00;95447.59;5073663;28;20465;-67
2023/05/09 01:57:43;;;;;;;0.60;0.60;;;;;;;15.85;100.00;95428.97;5074181;28;20441;-66
2023/05/09 02:00:15;;;;;;;0.40;0.30;;;;;;;16.24;100.00;95450.59;5073865;28;20560;-66
2023/05/09 02:02:44;;;;;;;0.40;0.27;;;;;;;16.38;100.00;95429.16;5073729;28;20528;-66
2023/05/09 02:05:14;;;;;;;0.40;0.30;;;;;;;16.11;100.00;95373.88;5068098;28;20443;-66
2023/05/09 02:07:43;;;;;;;0.90;0.70;;;;;;;16.70;100.00;95444.22;5066690;28;20484;-66
2023/05/09 02:10:13;;;;;;;0.40;0.30;;;;;;;16.77;100.00;95442.72;5073594;28;20481;-66
2023/05/09 02:12:41;;;;;;;0.40;0.40;;;;;;;16.83;100.00;95435.34;5073476;28;20469;-67
2023/05/09 02:15:17;;;;;;;0.40;0.30;;;;;;;16.03;100.00;95387.97;5073529;28;20950;-66
2023/05/09 02:17:45;;;;;;;0.40;0.20;;;;;;;16.51;100.00;95437.16;5073644;28;20971;-66
2023/05/09 02:20:13;;;;;;;0.40;0.30;;;;;;;16.55;100.00;95441.91;5073571;28;21024;-66
2023/05/09 02:22:43;;;;;;;0.93;0.67;;;;;;;16.58;100.00;95442.09;5073113;28;20488;-66
2023/05/09 02:25:14;;;;;;;0.40;0.20;;;;;;;16.38;100.00;95418.44;5069408;28;20441;-66
2023/05/09 02:27:45;;;;;;;0.60;0.40;;;;;;;16.63;100.00;95441.97;5072563;28;20474;-66
2023/05/09 02:30:22;;;;;;;0.70;0.70;;;;;;;16.47;100.00;95448.72;5073346;28;20449;-66
2023/05/09 02:32:53;;;;;;;0.40;0.30;;;;;;;16.49;100.00;95443.91;5073064;28;20516;-66
2023/05/09 02:35:24;;;;;;;0.90;0.90;;;;;;;16.21;100.00;95416.44;5073079;28;20928;-65
2023/05/09 02:37:54;;;;;;;0.50;0.50;;;;;;;16.52;100.00;95456.66;5073188;28;20473;-65
2023/05/09 02:40:23;;;;;;;0.57;0.40;;;;;;;16.54;100.00;95456.38;5072706;28;20807;-65
2023/05/09 02:42:51;;;;;;;0.70;0.60;;;;;;;16.47;100.00;95452.19;5073107;28;20893;-65
2023/05/09 02:45:21;;;;;;;0.50;0.37;;;;;;;16.52;100.00;95467.38;5072569;28;20440;-65
2023/05/09 02:47:49;;;;;;;0.40;0.40;;;;;;;16.19;100.00;95412.50;5072975;28;20592;-65
2023/05/09 02:50:18;;;;;;;0.40;0.30;;;;;;;16.55;100.00;95463.31;5072697;28;20441;-65
2023/05/09 02:52:46;;;;;;;0.50;0.40;;;;;;;16.42;100.00;95443.50;5072771;28;20991;-65
2023/05/09 02:55:14;;;;;;;2.00;0.30;;;;;;;16.48;100.00;95463.69;5072540;28;20513;-65
2023/05/09 02:57:43;;;;;;;0.40;0.20;;;;;;;16.29;100.00;95473.78;5072515;28;20461;-65
2023/05/09 03:00:13;;;;;;;0.40;0.30;;;;;;;16.39;100.00;95471.66;5069139;28;20866;-65
2023/05/09 03:02:42;;;;;;;0.40;0.30;;;;;;;15.84;100.00;95480.84;5063447;28;20517;-65
2023/05/09 03:05:11;;;;;;;0.87;0.87;;;;;;;15.62;100.00;95488.78;5072451;28;20442;-65
2023/05/09 03:07:40;;;;;;;0.40;0.37;;;;;;;15.62;100.00;95481.53;5072796;28;20875;-66
2023/05/09 03:10:11;;;;;;;0.50;0.50;;;;;;;15.82;100.00;95483.03;5072733;28;20800;-65
2023/05/09 03:12:42;;;;;;;0.50;0.50;;;;;;;15.85;100.00;95488.59;5072274;28;20946;-66
2023/05/09 03:15:11;;;;;;;0.40;0.20;;;;;;;15.93;100.00;95494.31;5046743;28;20798;-66
2023/05/09 03:17:40;;;;;;;0.40;0.30;;;;;;;16.07;100.00;95490.53;5071932;28;20957;-66
2023/05/09 03:20:10;;;;;;;0.40;0.40;;;;;;;16.10;100.00;95494.50;5071774;28;20430;-65
2023/05/09 03:22:38;;;;;;;0.57;0.47;;;;;;;16.03;100.00;95500.25;5071800;28;20969;-66
2023/05/09 03:25:08;;;;;;;0.70;0.70;;;;;;;15.89;100.00;95472.72;5071780;28;20442;-66
2023/05/09 03:27:36;;;;;;;0.73;0.67;;;;;;;15.63;100.00;95493.84;5071210;28;20534;-65
2023/05/09 03:30:06;;;;;;;0.50;0.40;;;;;;;15.50;100.00;95504.50;5071774;28;20442;-65
2023/05/09 03:32:34;;;;;;;0.40;0.30;;;;;;;15.24;100.00;95496.09;5072231;28;20441;-66
2023/05/09 03:35:04;;;;;;;0.80;0.80;;;;;;;15.37;100.00;95503.34;5072997;28;20475;-66
2023/05/09 03:37:33;;;;;;;0.50;0.40;;;;;;;15.45;100.00;95501.88;5071787;28;20503;-66
2023/05/09 03:40:02;;;;;;;0.63;0.40;;;;;;;15.74;100.00;95497.88;5071935;28;20440;-66
2023/05/09 03:42:31;;;;;;;1.27;0.50;;;;;;;15.84;100.00;95496.88;5071316;28;20531;-66
2023/05/09 03:44:59;;;;;;;0.50;0.33;;;;;;;15.83;100.00;95498.78;5071990;28;20937;-65
2023/05/09 03:47:27;;;;;;;0.50;0.30;;;;;;;15.57;100.00;95487.00;5071877;28;20862;-67
2023/05/09 03:49:56;;;;;;;0.50;0.30;;;;;;;15.54;100.00;95473.41;5071801;28;20433;-66
2023/05/09 03:52:24;;;;;;;0.50;0.50;;;;;;;15.87;100.00;95507.78;5071539;28;20834;-66
2023/05/09 03:54:55;;;;;;;0.50;0.33;;;;;;;16.05;100.00;95500.75;5071791;28;20438;-65
2023/05/09 03:57:23;;;;;;;0.53;0.43;;;;;;;16.08;100.00;95515.41;5046345;28;20473;-65
2023/05/09 03:59:52;;;;;;;0.50;0.37;;;;;;;15.74;100.00;95515.78;5072025;28;20457;-66
2023/05/09 04:02:20;;;;;;;0.60;0.50;;;;;;;15.54;100.00;95508.94;5071378;28;21004;-66
2023/05/09 04:04:51;;;;;;;0.77;0.77;;;;;;;15.54;100.00;95513.50;5071320;28;20448;-65
2023/05/09 04:07:20;;;;;;;1.70;0.73;;;;;;;15.84;100.00;95518.25;5062705;28;20445;-64
2023/05/09 04:09:48;;;;;;;0.40;0.30;;;;;;;16.08;100.00;95513.53;5068040;28;20580;-64
2023/05/09 04:12:18;;;;;;;0.70;0.40;;;;;;;16.01;100.00;95523.81;5071591;28;20445;-63
2023/05/09 04:14:46;;;;;;;2.07;1.00;;;;;;;15.76;100.00;95501.03;5071562;28;20429;-63
2023/05/09 04:17:16;;;;;;;0.57;0.40;;;;;;;15.77;100.00;95517.88;5071078;28;20471;-64
2023/05/09 04:19:44;;;;;;;0.50;0.40;;;;;;;15.36;100.00;95484.94;5071236;28;20442;-64
2023/05/09 04:22:13;;;;;;;0.57;0.50;;;;;;;15.54;100.00;95530.31;5071068;28;20552;-63
2023/05/09 04:24:41;;;;;;;1.33;1.23;;;;;;;15.32;100.00;95514.13;5071451;28;20462;-64
2023/05/09 04:27:09;;;;;;;0.40;0.40;;;;;;;15.54;100.00;95529.53;5070859;28;20538;-64
2023/05/09 04:29:39;;;;;;;0.57;0.40;;;;;;;15.76;100.00;95532.34;5070852;28;20488;-64
2023/05/09 04:32:08;;;;;;;0.50;0.50;;;;;;;16.12;100.00;95533.22;5071336;28;20511;-64
2023/05/09 04:34:36;;;;;;;0.40;0.30;;;;;;;16.23;100.00;95536.47;5070318;28;20441;-64
2023/05/09 04:37:04;;;;;;;0.77;0.40;;;;;;;16.09;100.00;95530.34;5071136;28;20528;-64
2023/05/09 04:39:33;;;;;;;0.40;0.33;;;;;;;16.01;100.00;95513.13;5071134;28;20495;-65
2023/05/09 04:42:01;;;;;;;0.40;0.30;;;;;;;16.18;100.00;95529.34;5071133;28;20477;-64
2023/05/09 04:44:30;;;;;;;0.40;0.40;;;;;;;16.35;100.00;95534.06;5071279;28;20468;-65
2023/05/09 04:46:59;;;;;;;0.50;0.33;;;;;;;16.34;100.00;95538.63;5070444;28;20521;-66
2023/05/09 04:49:28;;;;;;;0.40;0.20;;;;;;;16.07;100.00;95501.22;5070563;28;20468;-66
2023/05/09 04:51:56;;;;;;;0.40;0.30;;;;;;;16.24;100.00;95538.06;5070910;28;20941;-66
2023/05/09 04:54:24;;;;;;;1.20;0.30;;;;;;;16.24;100.00;95540.75;5070645;28;20460;-66
2023/05/09 04:56:53;;;;;;;0.90;0.90;;;;;;;16.12;100.00;95503.81;5070864;28;20438;-66
2023/05/09 04:59:33;;;;;;;0.50;0.33;;;;;;;16.11;100.00;95512.13;5071080;28;20442;-66
2023/05/09 05:02:03;;;;;;;0.43;0.40;;;;;;;16.32;100.00;95532.78;5070908;28;20483;-66
2023/05/09 05:04:32;;;;;;;0.80;0.80;;;;;;;16.47;100.00;95537.81;5071059;28;20822;-66
2023/05/09 05:07:00;;;;;;;0.60;0.60;;;;;;;16.63;100.00;95540.19;5070961;28;20901;-66
2023/05/09 05:09:29;;;;;;;1.00;0.47;;;;;;;16.55;100.00;95533.66;5070991;28;20494;-65
2023/05/09 05:11:57;;;;;;;0.50;0.40;;;;;;;16.59;100.00;95523.16;5070986;28;20444;-65
2023/05/09 05:14:30;;;;;;;1.13;1.03;;;;;;;16.68;100.00;95540.88;5071009;28;20487;-65
2023/05/09 05:16:59;;;;;;;0.40;0.30;;;;;;;16.62;100.00;95541.31;5070851;28;20442;-65
2023/05/09 05:19:28;;;;;;;0.60;0.60;;;;;;;16.69;100.00;95541.69;5070559;28;20440;-65
2023/05/09 05:21:57;;;;;;;0.70;0.50;;;;;;;16.42;100.00;95535.25;5070685;28;20501;-64
2023/05/09 05:24:25;;;;;;;1.17;1.07;;;;;;;16.55;100.00;95543.56;5071576;28;21002;-66
2023/05/09 05:26:53;;;;;;;0.60;0.60;;;;;;;16.41;100.00;95540.91;5074594;28;20457;-64
2023/05/09 05:29:22;;;;;;;0.40;0.40;;;;;;;16.30;100.00;95526.16;5074103;28;20437;-65
2023/05/09 05:31:50;;;;;;;0.50;0.50;;;;;;;16.55;100.00;95540.91;5074146;28;21004;-65
2023/05/09 05:34:18;;;;;;;0.60;0.33;;;;;;;16.52;100.00;95547.66;5074030;28;20437;-65
2023/05/09 05:36:48;;;;;;;0.40;0.30;;;;;;;16.62;100.00;95546.66;5074581;28;20444;-65
2023/05/09 05:39:16;;;;;;;0.40;0.40;;;;;;;16.65;100.00;95521.94;5074187;28;20532;-66
2023/05/09 05:41:45;;;;;;;0.40;0.30;;;;;;;16.68;100.00;95550.78;5074356;28;20797;-66
2023/05/09 05:44:13;;;;;;;0.40;0.30;;;;;;;16.77;100.00;95546.31;5073708;28;20441;-65
2023/05/09 05:46:41;;;;;;;1.13;1.13;;;;;;;16.54;100.00;95542.00;5074817;28;20444;-65
2023/05/09 05:49:10;;;;;;;1.90;1.37;;;;;;;16.58;100.00;95549.13;5074661;28;20525;-65
2023/05/09 05:51:38;;;;;;;0.93;0.50;;;;;;;16.74;100.00;95552.25;5074047;28;21012;-65
2023/05/09 05:54:08;;;;;;;1.23;1.13;;;;;;;16.70;100.00;95556.63;5047732;28;20806;-64
2023/05/09 05:56:36;;;;;;;0.60;0.40;;;;;;;16.85;100.00;95557.06;5073942;28;20442;-65
2023/05/09 05:59:04;;;;;;;1.07;1.07;;;;;;;16.79;100.00;95562.88;5073917;28;20442;-65
2023/05/09 06:01:33;;;;;;;0.83;0.83;;;;;;;16.50;100.00;95521.16;5073457;28;20446;-65
2023/05/09 06:04:01;;;;;;;2.10;0.80;;;;;;;16.71;100.00;95563.56;5074124;28;20438;-66
2023/05/09 06:06:30;;;;;;;1.77;0.90;;;;;;;16.42;100.00;95545.16;5073112;28;20991;-66
2023/05/09 06:08:58;;;;;;;1.37;0.63;;;;;;;16.48;100.00;95592.94;5073881;28;20438;-65
2023/05/09 06:11:28;;;;;;;0.50;0.40;;;;;;;16.37;100.00;95569.34;5073640;28;20497;-66
2023/05/09 06:13:57;;;;;;;1.37;0.90;;;;;;;15.70;100.00;95464.03;5073646;28;20937;-65
2023/05/09 06:16:25;;;;;;;0.70;0.50;;;;;;;16.56;100.00;95566.56;5072476;28;20514;-66
2023/05/09 06:18:54;;;;;;;1.17;1.13;;;;;;;16.04;100.00;95495.69;5072846;28;20855;-65
2023/05/09 06:21:23;;;;;;;0.67;0.67;;;;;;;16.72;100.00;95565.16;5072357;28;20438;-66
2023/05/09 06:23:51;;;;;;;1.03;0.93;;;;;;;17.04;100.00;95573.78;5061501;28;20517;-66
2023/05/09 06:26:40;;;;;;;0.80;0.57;;;;;;;17.28;100.00;95562.75;5060835;28;20471;-65
2023/05/09 06:29:09;;;;;;;0.40;0.37;;;;;;;17.13;100.00;95561.25;5072886;28;20836;-66
2023/05/09 06:31:39;;;;;;;0.70;0.63;;;;;;;16.78;100.00;95479.09;5073168;28;20510;-66
2023/05/09 06:34:08;;;;;;;1.10;1.00;;;;;;;16.91;100.00;95565.78;5073139;28;20460;-66
2023/05/09 06:36:36;;;;;;;1.63;1.53;;;;;;;16.91;100.00;95569.28;5073270;28;20480;-66
2023/05/09 06:39:04;;;;;;;0.90;0.90;;;;;;;16.67;100.00;95562.59;5073258;28;20517;-68
2023/05/09 06:41:33;;;;;;;0.97;0.80;;;;;;;16.46;100.00;95556.84;5073219;28;20977;-67
2023/05/09 06:44:03;;;;;;;4.63;0.97;;;;;;;16.17;100.00;95567.88;5072322;28;20512;-67
2023/05/09 06:46:31;;;;;;;0.80;0.80;;;;;;;16.23;100.00;95573.91;5072307;28;20444;-67
2023/05/09 06:49:01;;;;;;;1.00;0.90;;;;;;;16.42;100.00;95572.72;5072462;28;20442;-67
2023/05/09 06:51:29;;;;;;;8.47;1.27;;;;;;;16.27;100.00;95566.88;5072069;28;20441;-70
2023/05/09 06:53:58;;;;;;;3.03;1.43;;;;;;;16.21;100.00;95574.22;5072192;28;20429;-66
2023/05/09 06:56:26;;;;;;;4.23;2.07;;;;;;;16.03;100.00;95575.13;5072489;28;20507;-65
2023/05/09 06:58:54;;;;;;;0.53;0.53;;;;;;;15.93;100.00;95569.97;5046283;28;20438;-66
2023/05/09 07:01:24;;;;;;;0.60;0.57;;;;;;;16.10;100.00;95561.34;5072258;28;20874;-65
2023/05/09 07:03:53;;;;;;;1.33;1.07;;;;;;;16.35;100.00;95572.31;5072257;28;20479;-66
2023/05/09 07:06:21;;;;;;;0.40;0.30;;;;;;;16.55;100.00;95567.66;5071776;28;20477;-68
2023/05/09 07:08:49;;;;;;;3.27;1.23;;;;;;;16.74;100.00;95577.16;5072351;28;20444;-68
2023/05/09 07:11:17;;;;;;;0.40;0.30;;;;;;;17.14;100.00;95570.88;5071998;28;20525;-68
2023/05/09 07:13:46;;;;;;;0.60;0.57;;;;;;;17.06;100.00;95573.47;5072034;28;20429;-67
2023/05/09 07:16:14;;;;;;;1.00;0.90;;;;;;;17.25;100.00;95576.00;5072271;28;20440;-67
2023/05/09 07:18:44;;;;;;;0.70;0.53;;;;;;;16.98;100.00;95574.19;5071939;28;20529;-68
2023/05/09 07:21:12;;;;;;;0.60;0.60;;;;;;;16.77;100.00;95573.09;5072180;28;20434;-68
2023/05/09 07:23:41;;;;;;;0.57;0.53;;;;;;;16.71;100.00;95574.28;5071638;28;20473;-68
2023/05/09 07:26:09;;;;;;;0.70;0.50;;;;;;;16.91;100.00;95579.97;5071673;28;20495;-67
2023/05/09 07:28:37;;;;;;;0.60;0.60;;;;;;;16.97;100.00;95583.34;5071540;28;20444;-70
2023/05/09 07:31:08;;;;;;;0.77;0.77;;;;;;;16.76;100.00;95582.19;5071726;28;20440;-67
2023/05/09 07:33:37;;;;;;;0.60;0.60;;;;;;;16.59;100.00;95584.72;5072306;28;20453;-68
2023/05/09 07:36:11;;;;;;;0.60;0.47;;;;;;;17.08;100.00;95580.13;5071400;28;20459;-67
2023/05/09 07:38:40;;;;;;;1.27;1.17;;;;;;;17.12;100.00;95580.31;5071747;28;20441;-67
2023/05/09 07:41:08;;;;;;;12.97;1.57;;;;;;;17.08;100.00;95585.47;5045936;28;20460;-67
2023/05/09 07:43:36;;;;;;;0.50;0.30;;;;;;;17.46;100.00;95577.84;5071193;28;20484;-68
2023/05/09 07:46:05;;;;;;;0.70;0.70;;;;;;;17.27;100.00;95512.97;5072137;28;20865;-69
2023/05/09 07:48:33;;;;;;;0.57;0.53;;;;;;;17.57;100.00;95584.59;5071252;28;20506;-70
2023/05/09 07:51:02;;;;;;;0.40;0.30;;;;;;;17.49;100.00;95579.13;5071889;28;20793;-69
2023/05/09 07:53:32;;;;;;;0.37;0.27;;;;;;;17.09;100.00;95479.13;5071610;28;20436;-70
2023/05/09 07:56:00;;;;;;;0.40;0.37;;;;;;;17.43;100.00;95578.47;5071427;28;20438;-71
2023/05/09 07:58:28;;;;;;;0.50;0.40;;;;;;;16.78;100.00;95580.00;5071304;28;20966;-70
2023/05/09 08:00:57;;;;;;;0.40;0.30;;;;;;;16.79;100.00;95584.28;5071839;28;21001;-70
2023/05/09 08:03:26;;;;;;;0.60;0.40;;;;;;;16.51;100.00;95591.53;5071704;28;20469;-70
2023/05/09 08:05:55;;;;;;;0.40;0.30;;;;;;;16.30;100.00;95582.31;5060833;28;20517;-69
2023/05/09 08:08:23;;;;;;;0.70;0.70;;;;;;;16.10;100.00;95586.19;5069694;28;20429;-69
2023/05/09 08:10:53;;;;;;;0.53;0.40;;;;;;;15.70;100.00;95592.31;5071361;28;20437;-67
2023/05/09 08:13:21;;;;;;;0.70;0.50;;;;;;;15.40;100.00;95592.78;5071164;28;20824;-68
2023/05/09 08:15:50;;;;;;;0.40;0.30;;;;;;;15.56;100.00;95588.81;5070990;28;20469;-67
2023/05/09 08:18:18;;;;;;;0.50;0.40;;;;;;;15.43;100.00;95592.22;5071705;28;20495;-65
2023/05/09 08:20:47;;;;;;;0.40;0.30;;;;;;;14.94;100.00;95547.31;5071874;28;20891;-66
2023/05/09 08:23:15;;;;;;;0.40;0.30;;;;;;;15.21;100.00;95596.28;5071258;28;20473;-65
2023/05/09 08:25:43;;;;;;;0.40;0.30;;;;;;;15.47;100.00;95587.88;5070482;28;20495;-64
2023/05/09 08:28:13;;;;;;;0.30;0.20;;;;;;;15.93;100.00;95599.38;5071154;28;20437;-66
2023/05/09 08:30:41;;;;;;;0.40;0.30;;;;;;;15.86;100.00;95593.63;5070566;28;20532;-65
2023/05/09 08:33:10;;;;;;;0.40;0.20;;;;;;;16.23;100.00;95589.97;5071263;28;20821;-66
2023/05/09 08:35:38;;;;;;;0.30;0.20;;;;;;;16.52;100.00;95582.44;5070942;28;20515;-66
2023/05/09 08:38:06;;;;;;;0.30;0.20;;;;;;;16.64;100.00;95595.31;5071473;28;20521;-66
2023/05/09 08:40:36;;;;;;;0.40;0.37;;;;;;;16.77;100.00;95592.63;5070805;28;20528;-67
2023/05/09 08:43:07;;;;;;;0.40;0.30;;;;;;;17.03;100.00;95598.19;5071227;28;20495;-67
2023/05/09 08:45:45;;;;;;;0.40;0.30;;;;;;;17.13;100.00;95597.94;5070870;28;20448;-67
2023/05/09 08:48:15;;;;;;;0.40;0.20;;;;;;;17.16;100.00;95592.00;5071578;28;20934;-68
2023/05/09 08:50:44;;;;;;;0.37;0.30;;;;;;;17.13;100.00;95597.94;5071275;28;20458;-68
2023/05/09 08:53:13;;;;;;;0.30;0.20;;;;;;;17.32;100.00;95595.91;5071020;28;20519;-68
2023/05/09 08:55:42;;;;;;;0.40;0.40;;;;;;;17.21;100.00;95594.53;5044547;28;20444;-67
2023/05/09 08:58:11;;;;;;;0.40;0.30;;;;;;;17.28;100.00;95600.25;5070701;28;20524;-66
2023/05/09 09:00:41;;;;;;;0.40;0.40;;;;;;;17.33;100.00;95586.75;5073195;28;20437;-66
2023/05/09 09:03:10;;;;;;;0.60;0.40;;;;;;;17.42;100.00;95589.50;5074123;28;20528;-67
2023/05/09 09:05:42;;;;;;;0.70;0.70;;;;;;;17.05;100.00;95586.06;5074454;28;20949;-66
2023/05/09 09:08:11;;;;;;;0.60;0.30;;;;;;;16.67;100.00;95600.84;5074140;28;20452;-67
2023/05/09 09:10:42;;;;;;;0.43;0.30;;;;;;;16.81;100.00;95600.81;5074543;28;20442;-66
2023/05/09 09:13:12;;;;;;;0.40;0.30;;;;;;;16.47;100.00;95602.03;5074142;28;20441;-66
2023/05/09 09:15:45;;;;;;;0.60;0.57;;;;;;;16.40;100.00;95592.81;5073715;28;20824;-66
2023/05/09 09:18:20;;;;;;;0.40;0.40;;;;;;;16.60;100.00;95605.81;5073521;28;20507;-65
2023/05/09 09:20:56;;;;;;;0.73;0.30;;;;;;;16.52;100.00;95609.97;5074014;28;20476;-66
2023/05/09 09:23:26;;;;;;;0.40;0.30;;;;;;;16.87;100.00;95607.66;5073717;28;20437;-67
2023/05/09 09:25:59;;;;;;;0.70;0.50;;;;;;;16.83;100.00;95620.03;5073680;28;20445;-66
2023/05/09 09:28:27;;;;;;;0.40;0.30;;;;;;;16.55;100.00;95618.50;5074496;28;20503;-66
2023/05/09 09:30:57;;;;;;;0.40;0.30;;;;;;;16.86;100.00;95614.09;5060696;28;20514;-67
2023/05/09 09:33:27;;;;;;;0.40;0.40;;;;;;;16.62;100.00;95602.84;5074146;28;20576;-67
2023/05/09 09:35:56;;;;;;;0.30;0.20;;;;;;;16.66;100.00;95612.66;5074509;28;20433;-67
2023/05/09 09:38:25;;;;;;;0.40;0.27;;;;;;;16.45;100.00;95614.91;5073984;28;20879;-67
2023/05/09 09:40:55;;;;;;;0.60;0.60;;;;;;;16.26;100.00;95619.59;5074099;28;20426;-68
2023/05/09 09:43:28;;;;;;;0.80;0.57;;;;;;;16.47;100.00;95609.25;5073964;28;21033;-66
2023/05/09 09:46:01;;;;;;;0.40;0.30;;;;;;;16.80;100.00;95621.44;5073999;28;20572;-68
2023/05/09 09:48:32;;;;;;;0.83;0.83;;;;;;;17.04;100.00;95615.84;5060472;28;21001;-70
2023/05/09 09:51:08;;;;;;;7.17;0.40;;;;;;;16.59;100.00;95545.38;5073646;28;20452;-71
2023/05/09 09:53:39;;;;;;;0.50;0.40;;;;;;;17.12;100.00;95615.13;5073602;28;20854;-70
2023/05/09 09:56:08;;;;;;;0.40;0.30;;;;;;;16.48;100.00;95453.78;5063750;28;20792;-71
2023/05/09 09:58:36;;;;;;;0.40;0.30;;;;;;;17.30;100.00;95559.78;5071113;28;20961;-72
2023/05/09 10:01:08;;;;;;;0.40;0.30;;;;;;;17.38;100.00;95597.34;5073990;28;20441;-71
2023/05/09 10:03:38;;;;;;;1.83;0.30;;;;;;;17.18;100.00;95557.66;5073417;28;20465;-70
2023/05/09 10:06:10;;;;;;;0.40;0.30;;;;;;;17.56;100.00;95607.13;5073273;28;20476;-70
2023/05/09 10:08:38;;;;;;;0.40;0.30;;;;;;;17.72;100.00;95608.34;5046930;28;20559;-69
2023/05/09 10:11:10;;;;;;;0.30;0.30;;;;;;;17.35;100.00;95576.53;5073065;28;20437;-70
2023/05/09 10:13:38;;;;;;;0.40;0.30;;;;;;;17.19;100.00;95607.47;5073716;28;20602;-71
2023/05/09 10:16:09;;;;;;;0.50;0.40;;;;;;;17.17;100.00;95590.09;5074702;28;20951;-64
2023/05/09 10:18:39;;;;;;;0.40;0.30;;;;;;;16.79;100.00;95606.50;5073693;28;20975;-72
2023/05/09 10:21:11;;;;;;;0.40;0.30;;;;;;;16.86;100.00;95549.84;5073038;28;20476;-73
2023/05/09 10:23:45;;;;;;;0.40;0.30;;;;;;;16.92;100.00;95592.28;5072811;28;20529;-76
2023/05/09 10:26:18;;;;;;;0.30;0.20;;;;;;;16.86;100.00;95601.50;5072496;28;20492;-74
2023/05/09 10:28:49;;;;;;;2.17;0.30;;;;;;;16.14;100.00;95519.56;5072976;28;20536;-75
2023/05/09 10:31:25;;;;;;;0.40;0.30;;;;;;;16.36;100.00;95600.66;5073246;28;20437;-77
2023/05/09 10:33:55;;;;;;;0.50;0.50;;;;;;;16.44;100.00;95599.94;5073549;28;20502;-76
2023/05/09 10:36:24;;;;;;;0.30;0.20;;;;;;;16.51;100.00;95562.91;5073537;28;20441;-76
2023/05/09 10:38:55;;;;;;;0.40;0.40;;;;;;;17.34;100.00;95595.59;5073139;28;20972;-76
2023/05/09 10:41:24;;;;;;;0.50;0.40;;;;;;;17.11;100.00;95517.13;5073176;28;20465;-76
2023/05/09 10:43:55;;;;;;;0.40;0.30;;;;;;;17.40;100.00;95592.50;5072513;28;20438;-77
2023/05/09 10:46:26;;;;;;;0.40;0.30;;;;;;;17.25;100.00;95600.91;5073294;28;20477;-79
2023/05/09 10:48:55;;;;;;;0.70;0.70;;;;;;;17.27;100.00;95595.22;5062219;28;20533;-78
2023/05/09 10:51:24;;;;;;;0.30;0.20;;;;;;;17.64;100.00;95597.53;5071818;28;20442;-79
2023/05/09 10:53:54;;;;;;;0.50;0.30;;;;;;;17.47;100.00;95603.56;5072698;28;20426;-80
2023/05/09 10:56:26;;;;;;;0.40;0.30;;;;;;;17.46;100.00;95601.97;5072911;28;20441;-78
2023/05/09 10:58:55;;;;;;;0.40;0.30;;;;;;;17.63;100.00;95601.34;5072448;28;20465;-79
2023/05/09 11:01:33;;;;;;;0.60;0.40;;;;;;;17.55;100.00;95594.84;5072597;28;20860;-78
2023/05/09 11:04:10;;;;;;;1.43;0.37;;;;;;;17.51;100.00;95596.50;5072998;28;20469;-77
2023/05/09 11:06:48;;;;;;;0.40;0.30;;;;;;;17.20;100.00;95534.06;5071864;28;20488;-78
2023/05/09 11:09:28;;;;;;;0.40;0.30;;;;;;;17.57;100.00;95600.66;5072918;28;20497;-78
2023/05/09 11:11:57;;;;;;;0.33;0.30;;;;;;;17.69;100.00;95597.41;5047214;28;20437;-77
2023/05/09 11:14:33;;;;;;;0.30;0.20;;;;;;;16.93;100.00;95559.03;5072310;28;20481;-75
2023/05/09 11:17:04;;;;;;;0.40;0.30;;;;;;;17.62;100.00;95605.91;5072278;28;20437;-76
2023/05/09 11:19:37;;;;;;;0.47;0.47;;;;;;;17.37;100.00;95595.78;5071770;28;20987;-76
2023/05/09 11:22:13;;;;;;;0.40;0.30;;;;;;;17.04;100.00;95605.13;5070859;28;20482;-74
2023/05/09 11:24:46;;;;;;;0.80;0.60;;;;;;;17.29;100.00;95604.53;5071553;28;20861;-74
2023/05/09 11:27:15;;;;;;;0.60;0.30;;;;;;;17.17;100.00;95600.81;5071676;28;20496;-76
2023/05/09 11:29:45;;;;;;;0.40;0.40;;;;;;;16.66;100.00;95614.53;5043206;28;20552;-76
2023/05/09 11:32:15;;;;;;;0.40;0.30;;;;;;;17.03;100.00;95603.53;5066447;28;20491;-75
2023/05/09 11:34:45;;;;;;;0.40;0.30;;;;;;;17.13;100.00;95600.63;5072282;28;20519;-75
2023/05/09 11:37:16;;;;;;;0.80;0.80;;;;;;;16.55;100.00;95527.53;5071156;28;20442;-76